Aviation Digital Data Service (ADDS)

Output produced by METARs form (2202 UTC 24 February 2018)
found at http://www.aviationweather.gov/adds/metars/
 
METAR text: KBTP 242156Z AUTO 09009KT 10SM BKN012 OVC100 08/06 A3006 RMK AO2 SLP188 T00780061
Conditions at: KBTP (BUTLER CO. , PA, US) observed 2156 UTC 24 February 2018
Temperature: 7.8°C (46°F)
Dewpoint: 6.1°C (43°F) [RH = 89%]
Pressure (altimeter): 30.06 inches Hg (1018.0 mb)
[Sea-level pressure: 1018.8 mb]
Winds: from the E (90 degrees) at 10 MPH (9 knots; 4.7 m/s)
Visibility: 10 or more miles (16+ km)
Ceiling: 1200 feet AGL
Clouds: broken clouds at 1200 feet AGL
overcast cloud deck at 10000 feet AGL
Weather: automated observation with no human augmentation;
there may or may not be significant weather present at this time

METAR text: KBTP 242056Z AUTO 09010KT 10SM OVC007 07/06 A3005 RMK AO2 RAE49 CIG 006V011 SLP185 P0001 60006 T00720061 56029
Conditions at: KBTP (BUTLER CO. , PA, US) observed 2056 UTC 24 February 2018
Temperature: 7.2°C (45°F)
Dewpoint: 6.1°C (43°F) [RH = 93%]
Pressure (altimeter): 30.05 inches Hg (1017.7 mb)
[Sea-level pressure: 1018.5 mb]
Winds: from the E (90 degrees) at 12 MPH (10 knots; 5.2 m/s)
Visibility: 10 or more miles (16+ km)
Ceiling: 700 feet AGL
Clouds: overcast cloud deck at 700 feet AGL
Weather: automated observation with no human augmentation;
there may or may not be significant weather present at this time

METAR text: KBTP 241956Z AUTO 07010KT 6SM -RA BR BKN007 BKN011 OVC043 07/07 A3007 RMK AO2 SLP194 P0004 T00720067
Conditions at: KBTP (BUTLER CO. , PA, US) observed 1956 UTC 24 February 2018
Temperature: 7.2°C (45°F)
Dewpoint: 6.7°C (44°F) [RH = 97%]
Pressure (altimeter): 30.07 inches Hg (1018.4 mb)
[Sea-level pressure: 1019.4 mb]
Winds: from the ENE (70 degrees) at 12 MPH (10 knots; 5.2 m/s)
Visibility: 6 miles (10 km)
Ceiling: 700 feet AGL
Clouds: broken clouds at 700 feet AGL
broken clouds at 1100 feet AGL
overcast cloud deck at 4300 feet AGL
Weather: -RA BR  (light rain, mist)

METAR text: KBTP 241953Z AUTO 09009KT 5SM -RA BR BKN007 BKN011 OVC043 07/07 A3007 RMK AO2 PRESFR P0004
Conditions at: KBTP (BUTLER CO. , PA, US) observed 1953 UTC 24 February 2018
Temperature: 7.0°C (45°F)
Dewpoint: 7.0°C (45°F) [RH = 100%]
Pressure (altimeter): 30.07 inches Hg (1018.4 mb)
Winds: from the E (90 degrees) at 10 MPH (9 knots; 4.7 m/s)
Visibility: 5 miles (8 km)
Ceiling: 700 feet AGL
Clouds: broken clouds at 700 feet AGL
broken clouds at 1100 feet AGL
overcast cloud deck at 4300 feet AGL
Weather: -RA BR  (light rain, mist)

METAR text: KBTP 241936Z AUTO 08007KT 5SM -RA BR SCT007 BKN035 OVC046 07/06 A3010 RMK AO2 P0002
Conditions at: KBTP (BUTLER CO. , PA, US) observed 1936 UTC 24 February 2018
Temperature: 7.0°C (45°F)
Dewpoint: 6.0°C (43°F) [RH = 93%]
Pressure (altimeter): 30.10 inches Hg (1019.4 mb)
Winds: from the E (80 degrees) at 8 MPH (7 knots; 3.6 m/s)
Visibility: 5 miles (8 km)
Ceiling: 3500 feet AGL
Clouds: scattered clouds at 700 feet AGL
broken clouds at 3500 feet AGL
overcast cloud deck at 4600 feet AGL
Weather: -RA BR  (light rain, mist)

METAR text: KBTP 241856Z AUTO 04006KT 6SM -RA BR BKN007 OVC032 07/06 A3014 RMK AO2 CIG 006V011 SLP215 P0001 T00720061
Conditions at: KBTP (BUTLER CO. , PA, US) observed 1856 UTC 24 February 2018
Temperature: 7.2°C (45°F)
Dewpoint: 6.1°C (43°F) [RH = 93%]
Pressure (altimeter): 30.14 inches Hg (1020.7 mb)
[Sea-level pressure: 1021.5 mb]
Winds: from the NE (40 degrees) at 7 MPH (6 knots; 3.1 m/s)
Visibility: 6 miles (10 km)
Ceiling: 700 feet AGL
Clouds: broken clouds at 700 feet AGL
overcast cloud deck at 3200 feet AGL
Weather: -RA BR  (light rain, mist)

METAR text: KBTP 241830Z AUTO 06005KT 5SM -RA BR BKN007 OVC032 07/07 A3013 RMK AO2 CIG 005V010 P0001
Conditions at: KBTP (BUTLER CO. , PA, US) observed 1830 UTC 24 February 2018
Temperature: 7.0°C (45°F)
Dewpoint: 7.0°C (45°F) [RH = 100%]
Pressure (altimeter): 30.13 inches Hg (1020.4 mb)
Winds: from the ENE (60 degrees) at 6 MPH (5 knots; 2.6 m/s)
Visibility: 5 miles (8 km)
Ceiling: 700 feet AGL
Clouds: broken clouds at 700 feet AGL
overcast cloud deck at 3200 feet AGL
Weather: -RA BR  (light rain, mist)

METAR text: KBTP 241756Z AUTO 07007KT 5SM -RA BR BKN005 BKN012 OVC034 07/06 A3014 RMK AO2 CIG 004V009 SLP216 P0007 60026 T00720061 10072 20067 56019
Conditions at: KBTP (BUTLER CO. , PA, US) observed 1756 UTC 24 February 2018
Temperature: 7.2°C (45°F)
Dewpoint: 6.1°C (43°F) [RH = 93%]
Pressure (altimeter): 30.14 inches Hg (1020.7 mb)
[Sea-level pressure: 1021.6 mb]
Winds: from the ENE (70 degrees) at 8 MPH (7 knots; 3.6 m/s)
Visibility: 5 miles (8 km)
Ceiling: 500 feet AGL
Clouds: broken clouds at 500 feet AGL
broken clouds at 1200 feet AGL
overcast cloud deck at 3400 feet AGL
Weather: -RA BR  (light rain, mist)

METAR text: KBTP 241747Z AUTO 08006KT 5SM -RA BR BKN005 OVC034 07/06 A3015 RMK AO2 CIG 004V009 P0006
Conditions at: KBTP (BUTLER CO. , PA, US) observed 1747 UTC 24 February 2018
Temperature: 7.0°C (45°F)
Dewpoint: 6.0°C (43°F) [RH = 93%]
Pressure (altimeter): 30.15 inches Hg (1021.1 mb)
Winds: from the E (80 degrees) at 7 MPH (6 knots; 3.1 m/s)
Visibility: 5 miles (8 km)
Ceiling: 500 feet AGL
Clouds: broken clouds at 500 feet AGL
overcast cloud deck at 3400 feet AGL
Weather: -RA BR  (light rain, mist)

METAR text: KBTP 241656Z AUTO 08005KT 3SM -RA BR FEW005 SCT009 OVC036 07/06 A3016 RMK AO2 SLP224 P0014 T00670061
Conditions at: KBTP (BUTLER CO. , PA, US) observed 1656 UTC 24 February 2018
Temperature: 6.7°C (44°F)
Dewpoint: 6.1°C (43°F) [RH = 96%]
Pressure (altimeter): 30.16 inches Hg (1021.4 mb)
[Sea-level pressure: 1022.4 mb]
Winds: from the E (80 degrees) at 6 MPH (5 knots; 2.6 m/s)
Visibility: 3 miles (5 km)
Ceiling: 3600 feet AGL
Clouds: few clouds at 500 feet AGL
scattered clouds at 900 feet AGL
overcast cloud deck at 3600 feet AGL
Weather: -RA BR  (light rain, mist)

METAR text: KBTP 241623Z AUTO 04004KT 3SM RA BR FEW007 BKN047 OVC060 07/06 A3016 RMK AO2 P0006
Conditions at: KBTP (BUTLER CO. , PA, US) observed 1623 UTC 24 February 2018
Temperature: 7.0°C (45°F)
Dewpoint: 6.0°C (43°F) [RH = 93%]
Pressure (altimeter): 30.16 inches Hg (1021.4 mb)
Winds: from the NE (40 degrees) at 5 MPH (4 knots; 2.1 m/s)
Visibility: 3 miles (5 km)
Ceiling: 4700 feet AGL
Clouds: few clouds at 700 feet AGL
broken clouds at 4700 feet AGL
overcast cloud deck at 6000 feet AGL
Weather: RA BR  (rain, mist)

METAR text: KBTP 241556Z AUTO 06006KT 6SM -RA BR OVC060 07/06 A3015 RMK AO2 SLP217 P0002 T00670056
Conditions at: KBTP (BUTLER CO. , PA, US) observed 1556 UTC 24 February 2018
Temperature: 6.7°C (44°F)
Dewpoint: 5.6°C (42°F) [RH = 93%]
Pressure (altimeter): 30.15 inches Hg (1021.1 mb)
[Sea-level pressure: 1021.7 mb]
Winds: from the ENE (60 degrees) at 7 MPH (6 knots; 3.1 m/s)
Visibility: 6 miles (10 km)
Ceiling: 6000 feet AGL
Clouds: overcast cloud deck at 6000 feet AGL
Weather: -RA BR  (light rain, mist)

METAR text: KBTP 241456Z AUTO 00000KT 9SM -RA OVC060 07/06 A3020 RMK AO2 SLP234 P0000 60003 T00670056 50000
Conditions at: KBTP (BUTLER CO. , PA, US) observed 1456 UTC 24 February 2018
Temperature: 6.7°C (44°F)
Dewpoint: 5.6°C (42°F) [RH = 93%]
Pressure (altimeter): 30.20 inches Hg (1022.8 mb)
[Sea-level pressure: 1023.4 mb]
Winds: calm
Visibility: 9 miles (14 km)
Ceiling: 6000 feet AGL
Clouds: overcast cloud deck at 6000 feet AGL
Weather: -RA  (light rain)

METAR text: KBTP 241356Z AUTO 00000KT 9SM -RA BKN065 07/05 A3021 RMK AO2 SLP238 P0002 T00670050
Conditions at: KBTP (BUTLER CO. , PA, US) observed 1356 UTC 24 February 2018
Temperature: 6.7°C (44°F)
Dewpoint: 5.0°C (41°F) [RH = 89%]
Pressure (altimeter): 30.21 inches Hg (1023.1 mb)
[Sea-level pressure: 1023.8 mb]
Winds: calm
Visibility: 9 miles (14 km)
Ceiling: 6500 feet AGL
Clouds: broken clouds at 6500 feet AGL
Weather: -RA  (light rain)

METAR text: KBTP 241308Z AUTO 02004KT 9SM -RA SCT014 BKN038 OVC075 07/05 A3019 RMK AO2 P0001
Conditions at: KBTP (BUTLER CO. , PA, US) observed 1308 UTC 24 February 2018
Temperature: 7.0°C (45°F)
Dewpoint: 5.0°C (41°F) [RH = 87%]
Pressure (altimeter): 30.19 inches Hg (1022.4 mb)
Winds: from the NNE (20 degrees) at 5 MPH (4 knots; 2.1 m/s)
Visibility: 9 miles (14 km)
Ceiling: 3800 feet AGL
Clouds: scattered clouds at 1400 feet AGL
broken clouds at 3800 feet AGL
overcast cloud deck at 7500 feet AGL
Weather: -RA  (light rain)

METAR text: KBTP 241256Z AUTO 03005KT 10SM -RA BKN014 OVC075 07/04 A3019 RMK AO2 RAB1159E13B35 SLP232 P0001 T00670044
Conditions at: KBTP (BUTLER CO. , PA, US) observed 1256 UTC 24 February 2018
Temperature: 6.7°C (44°F)
Dewpoint: 4.4°C (40°F) [RH = 85%]
Pressure (altimeter): 30.19 inches Hg (1022.4 mb)
[Sea-level pressure: 1023.2 mb]
Winds: from the NNE (30 degrees) at 6 MPH (5 knots; 2.6 m/s)
Visibility: 10 or more miles (16+ km)
Ceiling: 1400 feet AGL
Clouds: broken clouds at 1400 feet AGL
overcast cloud deck at 7500 feet AGL
Weather: -RA  (light rain)

METAR text: KBTP 241156Z AUTO 03003KT 10SM OVC016 07/05 A3020 RMK AO2 PRESRR SLP234 70063 T00720050 10106 20072 53008
Conditions at: KBTP (BUTLER CO. , PA, US) observed 1156 UTC 24 February 2018
Temperature: 7.2°C (45°F)
Dewpoint: 5.0°C (41°F) [RH = 86%]
Pressure (altimeter): 30.20 inches Hg (1022.8 mb)
[Sea-level pressure: 1023.4 mb]
Winds: from the NNE (30 degrees) at 3 MPH (3 knots; 1.6 m/s)
Visibility: 10 or more miles (16+ km)
Ceiling: 1600 feet AGL
Clouds: overcast cloud deck at 1600 feet AGL
Weather: automated observation with no human augmentation;
there may or may not be significant weather present at this time

METAR text: KBTP 241113Z AUTO 36005KT 10SM OVC016 07/05 A3017 RMK AO2
Conditions at: KBTP (BUTLER CO. , PA, US) observed 1113 UTC 24 February 2018
Temperature: 7.0°C (45°F)
Dewpoint: 5.0°C (41°F) [RH = 87%]
Pressure (altimeter): 30.17 inches Hg (1021.8 mb)
Winds: from the N (360 degrees) at 6 MPH (5 knots; 2.6 m/s)
Visibility: 10 or more miles (16+ km)
Ceiling: 1600 feet AGL
Clouds: overcast cloud deck at 1600 feet AGL
Weather: automated observation with no human augmentation;
there may or may not be significant weather present at this time

METAR text: KBTP 241056Z AUTO 01007KT 10SM OVC014 08/06 A3017 RMK AO2 SLP223 T00780056
Conditions at: KBTP (BUTLER CO. , PA, US) observed 1056 UTC 24 February 2018
Temperature: 7.8°C (46°F)
Dewpoint: 5.6°C (42°F) [RH = 86%]
Pressure (altimeter): 30.17 inches Hg (1021.8 mb)
[Sea-level pressure: 1022.3 mb]
Winds: from the N (10 degrees) at 8 MPH (7 knots; 3.6 m/s)
Visibility: 10 or more miles (16+ km)
Ceiling: 1400 feet AGL
Clouds: overcast cloud deck at 1400 feet AGL
Weather: automated observation with no human augmentation;
there may or may not be significant weather present at this time

METAR text: KBTP 240956Z AUTO 31003KT 10SM OVC012 08/06 A3018 RMK AO2 SLP227 T00830061
Conditions at: KBTP (BUTLER CO. , PA, US) observed 0956 UTC 24 February 2018
Temperature: 8.3°C (47°F)
Dewpoint: 6.1°C (43°F) [RH = 86%]
Pressure (altimeter): 30.18 inches Hg (1022.1 mb)
[Sea-level pressure: 1022.7 mb]
Winds: from the NW (310 degrees) at 3 MPH (3 knots; 1.6 m/s)
Visibility: 10 or more miles (16+ km)
Ceiling: 1200 feet AGL
Clouds: overcast cloud deck at 1200 feet AGL
Weather: automated observation with no human augmentation;
there may or may not be significant weather present at this time

METAR text: KBTP 240925Z AUTO 31003KT 10SM OVC010 09/07 A3018 RMK AO2 CIG 008V014
Conditions at: KBTP (BUTLER CO. , PA, US) observed 0925 UTC 24 February 2018
Temperature: 9.0°C (48°F)
Dewpoint: 7.0°C (45°F) [RH = 87%]
Pressure (altimeter): 30.18 inches Hg (1022.1 mb)
Winds: from the NW (310 degrees) at 3 MPH (3 knots; 1.6 m/s)
Visibility: 10 or more miles (16+ km)
Ceiling: 1000 feet AGL
Clouds: overcast cloud deck at 1000 feet AGL
Weather: automated observation with no human augmentation;
there may or may not be significant weather present at this time

METAR text: KBTP 240856Z AUTO 34005KT 10SM OVC008 09/08 A3017 RMK AO2 SLP224 T00890078 50000
Conditions at: KBTP (BUTLER CO. , PA, US) observed 0856 UTC 24 February 2018
Temperature: 8.9°C (48°F)
Dewpoint: 7.8°C (46°F) [RH = 93%]
Pressure (altimeter): 30.17 inches Hg (1021.8 mb)
[Sea-level pressure: 1022.4 mb]
Winds: from the NNW (340 degrees) at 6 MPH (5 knots; 2.6 m/s)
Visibility: 10 or more miles (16+ km)
Ceiling: 800 feet AGL
Clouds: overcast cloud deck at 800 feet AGL
Weather: automated observation with no human augmentation;
there may or may not be significant weather present at this time

METAR text: KBTP 240832Z AUTO 36004KT 10SM OVC008 09/08 A3017 RMK AO2 CIG 007V011
Conditions at: KBTP (BUTLER CO. , PA, US) observed 0832 UTC 24 February 2018
Temperature: 9.0°C (48°F)
Dewpoint: 8.0°C (46°F) [RH = 93%]
Pressure (altimeter): 30.17 inches Hg (1021.8 mb)
Winds: from the N (360 degrees) at 5 MPH (4 knots; 2.1 m/s)
Visibility: 10 or more miles (16+ km)
Ceiling: 800 feet AGL
Clouds: overcast cloud deck at 800 feet AGL
Weather: automated observation with no human augmentation;
there may or may not be significant weather present at this time

METAR text: KBTP 240807Z AUTO VRB03KT 10SM OVC010 09/08 A3018 RMK AO2
Conditions at: KBTP (BUTLER CO. , PA, US) observed 0807 UTC 24 February 2018
Temperature: 9.0°C (48°F)
Dewpoint: 8.0°C (46°F) [RH = 93%]
Pressure (altimeter): 30.18 inches Hg (1022.1 mb)
Winds: variable direction winds at 3 MPH (3 knots; 1.6 m/s)
Visibility: 10 or more miles (16+ km)
Ceiling: 1000 feet AGL
Clouds: overcast cloud deck at 1000 feet AGL
Weather: automated observation with no human augmentation;
there may or may not be significant weather present at this time

METAR text: KBTP 240756Z AUTO VRB03KT 10SM OVC008 09/08 A3018 RMK AO2 CIG 008V012 SLP226 T00940083
Conditions at: KBTP (BUTLER CO. , PA, US) observed 0756 UTC 24 February 2018
Temperature: 9.4°C (49°F)
Dewpoint: 8.3°C (47°F) [RH = 93%]
Pressure (altimeter): 30.18 inches Hg (1022.1 mb)
[Sea-level pressure: 1022.6 mb]
Winds: variable direction winds at 3 MPH (3 knots; 1.6 m/s)
Visibility: 10 or more miles (16+ km)
Ceiling: 800 feet AGL
Clouds: overcast cloud deck at 800 feet AGL
Weather: automated observation with no human augmentation;
there may or may not be significant weather present at this time

METAR text: KBTP 240656Z AUTO 34005KT 10SM BKN008 OVC025 10/09 A3017 RMK AO2 SLP225 T01000089
Conditions at: KBTP (BUTLER CO. , PA, US) observed 0656 UTC 24 February 2018
Temperature: 10.0°C (50°F)
Dewpoint: 8.9°C (48°F) [RH = 93%]
Pressure (altimeter): 30.17 inches Hg (1021.8 mb)
[Sea-level pressure: 1022.5 mb]
Winds: from the NNW (340 degrees) at 6 MPH (5 knots; 2.6 m/s)
Visibility: 10 or more miles (16+ km)
Ceiling: 800 feet AGL
Clouds: broken clouds at 800 feet AGL
overcast cloud deck at 2500 feet AGL
Weather: automated observation with no human augmentation;
there may or may not be significant weather present at this time

METAR text: KBTP 240556Z AUTO 00000KT 10SM FEW008 OVC029 11/09 A3018 RMK AO2 SLP227 60000 T01060094 10150 20106 55000
Conditions at: KBTP (BUTLER CO. , PA, US) observed 0556 UTC 24 February 2018
Temperature: 10.6°C (51°F)
Dewpoint: 9.4°C (49°F) [RH = 92%]
Pressure (altimeter): 30.18 inches Hg (1022.1 mb)
[Sea-level pressure: 1022.7 mb]
Winds: calm
Visibility: 10 or more miles (16+ km)
Ceiling: 2900 feet AGL
Clouds: few clouds at 800 feet AGL
overcast cloud deck at 2900 feet AGL
Weather: automated observation with no human augmentation;
there may or may not be significant weather present at this time

METAR text: KBTP 240513Z AUTO VRB05KT 10SM SCT008 BKN019 OVC027 11/10 A3017 RMK AO2
Conditions at: KBTP (BUTLER CO. , PA, US) observed 0513 UTC 24 February 2018
Temperature: 11.0°C (52°F)
Dewpoint: 10.0°C (50°F) [RH = 94%]
Pressure (altimeter): 30.17 inches Hg (1021.8 mb)
Winds: variable direction winds at 6 MPH (5 knots; 2.6 m/s)
Visibility: 10 or more miles (16+ km)
Ceiling: 1900 feet AGL
Clouds: scattered clouds at 800 feet AGL
broken clouds at 1900 feet AGL
overcast cloud deck at 2700 feet AGL
Weather: automated observation with no human augmentation;
there may or may not be significant weather present at this time

METAR text: KBTP 240506Z AUTO 34005KT 10SM SCT010 SCT017 OVC027 12/10 A3018 RMK AO2
Conditions at: KBTP (BUTLER CO. , PA, US) observed 0506 UTC 24 February 2018
Temperature: 12.0°C (54°F)
Dewpoint: 10.0°C (50°F) [RH = 88%]
Pressure (altimeter): 30.18 inches Hg (1022.1 mb)
Winds: from the NNW (340 degrees) at 6 MPH (5 knots; 2.6 m/s)
Visibility: 10 or more miles (16+ km)
Ceiling: 2700 feet AGL
Clouds: scattered clouds at 1000 feet AGL
scattered clouds at 1700 feet AGL
overcast cloud deck at 2700 feet AGL
Weather: automated observation with no human augmentation;
there may or may not be significant weather present at this time

METAR text: KBTP 240456Z AUTO 32006KT 10SM FEW010 BKN014 OVC020 12/11 A3017 RMK AO2 SLP227 T01170106 401610039
Conditions at: KBTP (BUTLER CO. , PA, US) observed 0456 UTC 24 February 2018
Temperature: 11.7°C (53°F)
Dewpoint: 10.6°C (51°F) [RH = 93%]
Pressure (altimeter): 30.17 inches Hg (1021.8 mb)
[Sea-level pressure: 1022.7 mb]
Winds: from the NW (320 degrees) at 7 MPH (6 knots; 3.1 m/s)
Visibility: 10 or more miles (16+ km)
Ceiling: 1400 feet AGL
Clouds: few clouds at 1000 feet AGL
broken clouds at 1400 feet AGL
overcast cloud deck at 2000 feet AGL
Weather: automated observation with no human augmentation;
there may or may not be significant weather present at this time

METAR text: KBTP 240449Z AUTO 32005KT 10SM FEW010 BKN015 OVC021 13/11 A3017 RMK AO2
Conditions at: KBTP (BUTLER CO. , PA, US) observed 0449 UTC 24 February 2018
Temperature: 13.0°C (55°F)
Dewpoint: 11.0°C (52°F) [RH = 88%]
Pressure (altimeter): 30.17 inches Hg (1021.8 mb)
Winds: from the NW (320 degrees) at 6 MPH (5 knots; 2.6 m/s)
Visibility: 10 or more miles (16+ km)
Ceiling: 1500 feet AGL
Clouds: few clouds at 1000 feet AGL
broken clouds at 1500 feet AGL
overcast cloud deck at 2100 feet AGL
Weather: automated observation with no human augmentation;
there may or may not be significant weather present at this time

METAR text: KBTP 240437Z AUTO VRB04KT 10SM BKN013 BKN020 OVC035 14/12 A3017 RMK AO2
Conditions at: KBTP (BUTLER CO. , PA, US) observed 0437 UTC 24 February 2018
Temperature: 14.0°C (57°F)
Dewpoint: 12.0°C (54°F) [RH = 88%]
Pressure (altimeter): 30.17 inches Hg (1021.8 mb)
Winds: variable direction winds at 5 MPH (4 knots; 2.1 m/s)
Visibility: 10 or more miles (16+ km)
Ceiling: 1300 feet AGL
Clouds: broken clouds at 1300 feet AGL
broken clouds at 2000 feet AGL
overcast cloud deck at 3500 feet AGL
Weather: automated observation with no human augmentation;
there may or may not be significant weather present at this time

METAR text: KBTP 240411Z AUTO 27005KT 10SM FEW016 OVC037 14/12 A3016 RMK AO2
Conditions at: KBTP (BUTLER CO. , PA, US) observed 0411 UTC 24 February 2018
Temperature: 14.0°C (57°F)
Dewpoint: 12.0°C (54°F) [RH = 88%]
Pressure (altimeter): 30.16 inches Hg (1021.4 mb)
Winds: from the W (270 degrees) at 6 MPH (5 knots; 2.6 m/s)
Visibility: 10 or more miles (16+ km)
Ceiling: 3700 feet AGL
Clouds: few clouds at 1600 feet AGL
overcast cloud deck at 3700 feet AGL
Weather: automated observation with no human augmentation;
there may or may not be significant weather present at this time

METAR text: KBTP 240356Z AUTO 26006KT 10SM FEW016 BKN021 OVC035 14/12 A3017 RMK AO2 SLP226 T01440122
Conditions at: KBTP (BUTLER CO. , PA, US) observed 0356 UTC 24 February 2018
Temperature: 14.4°C (58°F)
Dewpoint: 12.2°C (54°F) [RH = 87%]
Pressure (altimeter): 30.17 inches Hg (1021.8 mb)
[Sea-level pressure: 1022.6 mb]
Winds: from the W (260 degrees) at 7 MPH (6 knots; 3.1 m/s)
Visibility: 10 or more miles (16+ km)
Ceiling: 2100 feet AGL
Clouds: few clouds at 1600 feet AGL
broken clouds at 2100 feet AGL
overcast cloud deck at 3500 feet AGL
Weather: automated observation with no human augmentation;
there may or may not be significant weather present at this time

METAR text: KBTP 240332Z AUTO 26008KT 10SM SCT018 BKN023 OVC037 14/13 A3017 RMK AO2
Conditions at: KBTP (BUTLER CO. , PA, US) observed 0332 UTC 24 February 2018
Temperature: 14.0°C (57°F)
Dewpoint: 13.0°C (55°F) [RH = 94%]
Pressure (altimeter): 30.17 inches Hg (1021.8 mb)
Winds: from the W (260 degrees) at 9 MPH (8 knots; 4.2 m/s)
Visibility: 10 or more miles (16+ km)
Ceiling: 2300 feet AGL
Clouds: scattered clouds at 1800 feet AGL
broken clouds at 2300 feet AGL
overcast cloud deck at 3700 feet AGL
Weather: automated observation with no human augmentation;
there may or may not be significant weather present at this time

METAR text: KBTP 240256Z AUTO 25008KT 10SM BKN041 15/13 A3018 RMK AO2 SLP227 60000 T01500128 53001
Conditions at: KBTP (BUTLER CO. , PA, US) observed 0256 UTC 24 February 2018
Temperature: 15.0°C (59°F)
Dewpoint: 12.8°C (55°F) [RH = 87%]
Pressure (altimeter): 30.18 inches Hg (1022.1 mb)
[Sea-level pressure: 1022.7 mb]
Winds: from the WSW (250 degrees) at 9 MPH (8 knots; 4.2 m/s)
Visibility: 10 or more miles (16+ km)
Ceiling: 4100 feet AGL
Clouds: broken clouds at 4100 feet AGL
Weather: automated observation with no human augmentation;
there may or may not be significant weather present at this time

METAR text: KBTP 240156Z AUTO 26012G17KT 10SM FEW039 15/13 A3017 RMK AO2 SLP226 T01500133
Conditions at: KBTP (BUTLER CO. , PA, US) observed 0156 UTC 24 February 2018
Temperature: 15.0°C (59°F)
Dewpoint: 13.3°C (56°F) [RH = 90%]
Pressure (altimeter): 30.17 inches Hg (1021.8 mb)
[Sea-level pressure: 1022.6 mb]
Winds: from the W (260 degrees) at 14 MPH (12 knots; 6.2 m/s)
gusting to 20 MPH (17 knots; 8.8 m/s)
Visibility: 10 or more miles (16+ km)
Ceiling: at least 12,000 feet AGL
Clouds: few clouds at 3900 feet AGL
Weather: automated observation with no human augmentation;
there may or may not be significant weather present at this time

METAR text: KBTP 240113Z AUTO 25008KT 10SM FEW023 SCT027 OVC035 15/14 A3017 RMK AO2
Conditions at: KBTP (BUTLER CO. , PA, US) observed 0113 UTC 24 February 2018
Temperature: 15.0°C (59°F)
Dewpoint: 14.0°C (57°F) [RH = 94%]
Pressure (altimeter): 30.17 inches Hg (1021.8 mb)
Winds: from the WSW (250 degrees) at 9 MPH (8 knots; 4.2 m/s)
Visibility: 10 or more miles (16+ km)
Ceiling: 3500 feet AGL
Clouds: few clouds at 2300 feet AGL
scattered clouds at 2700 feet AGL
overcast cloud deck at 3500 feet AGL
Weather: automated observation with no human augmentation;
there may or may not be significant weather present at this time

METAR text: KBTP 240056Z AUTO 26007KT 10SM SCT021 BKN028 OVC035 14/14 A3018 RMK AO2 RAE10 SLP228 P0000 T01440139
Conditions at: KBTP (BUTLER CO. , PA, US) observed 0056 UTC 24 February 2018
Temperature: 14.4°C (58°F)
Dewpoint: 13.9°C (57°F) [RH = 97%]
Pressure (altimeter): 30.18 inches Hg (1022.1 mb)
[Sea-level pressure: 1022.8 mb]
Winds: from the W (260 degrees) at 8 MPH (7 knots; 3.6 m/s)
Visibility: 10 or more miles (16+ km)
Ceiling: 2800 feet AGL
Clouds: scattered clouds at 2100 feet AGL
broken clouds at 2800 feet AGL
overcast cloud deck at 3500 feet AGL
Weather: automated observation with no human augmentation;
there may or may not be significant weather present at this time

METAR text: KBTP 240043Z AUTO 22004KT 10SM SCT014 BKN023 OVC036 14/14 A3018 RMK AO2 RAE10 P0000
Conditions at: KBTP (BUTLER CO. , PA, US) observed 0043 UTC 24 February 2018
Temperature: 14.0°C (57°F)
Dewpoint: 14.0°C (57°F) [RH = 100%]
Pressure (altimeter): 30.18 inches Hg (1022.1 mb)
Winds: from the SW (220 degrees) at 5 MPH (4 knots; 2.1 m/s)
Visibility: 10 or more miles (16+ km)
Ceiling: 2300 feet AGL
Clouds: scattered clouds at 1400 feet AGL
broken clouds at 2300 feet AGL
overcast cloud deck at 3600 feet AGL
Weather: automated observation with no human augmentation;
there may or may not be significant weather present at this time

METAR text: KBTP 232356Z AUTO 23006KT 4SM RA BR BKN014 OVC020 14/14 A3017 RMK AO2 RAB13 SLP227 P0005 60005 T01440139 10161 20100 53003
Conditions at: KBTP (BUTLER CO. , PA, US) observed 2356 UTC 23 February 2018
Temperature: 14.4°C (58°F)
Dewpoint: 13.9°C (57°F) [RH = 97%]
Pressure (altimeter): 30.17 inches Hg (1021.8 mb)
[Sea-level pressure: 1022.7 mb]
Winds: from the SW (230 degrees) at 7 MPH (6 knots; 3.1 m/s)
Visibility: 4 miles (6 km)
Ceiling: 1400 feet AGL
Clouds: broken clouds at 1400 feet AGL
overcast cloud deck at 2000 feet AGL
Weather: RA BR  (rain, mist)

METAR text: KBTP 232354Z AUTO 23007KT 4SM -RA BR BKN014 OVC020 14/14 A3018 RMK AO2 RAB13 P0004
Conditions at: KBTP (BUTLER CO. , PA, US) observed 2354 UTC 23 February 2018
Temperature: 14.0°C (57°F)
Dewpoint: 14.0°C (57°F) [RH = 100%]
Pressure (altimeter): 30.18 inches Hg (1022.1 mb)
Winds: from the SW (230 degrees) at 8 MPH (7 knots; 3.6 m/s)
Visibility: 4 miles (6 km)
Ceiling: 1400 feet AGL
Clouds: broken clouds at 1400 feet AGL
overcast cloud deck at 2000 feet AGL
Weather: -RA BR  (light rain, mist)

METAR text: KBTP 232256Z AUTO 22004KT 10SM OVC022 16/14 A3016 RMK AO2 SLP220 T01560139
Conditions at: KBTP (BUTLER CO. , PA, US) observed 2256 UTC 23 February 2018
Temperature: 15.6°C (60°F)
Dewpoint: 13.9°C (57°F) [RH = 90%]
Pressure (altimeter): 30.16 inches Hg (1021.4 mb)
[Sea-level pressure: 1022.0 mb]
Winds: from the SW (220 degrees) at 5 MPH (4 knots; 2.1 m/s)
Visibility: 10 or more miles (16+ km)
Ceiling: 2200 feet AGL
Clouds: overcast cloud deck at 2200 feet AGL
Weather: automated observation with no human augmentation;
there may or may not be significant weather present at this time